ENSS

Vardø , Svartnes Airport

Vardø, Norway
METAR ENSS 141850Z 29008KT 9999 SCT013 BKN018 08/06 Q1009 RMK WIND 500FT 27013KT
Observed Flight Rules
Aug-14 @ 18:50 UTC (6 hours ago) Marginal Visual Flight Rules
Wind Visibility Clouds
290° at 8 knots 10,000+ meters
  • Scattered at 1,300' AGL
  • Broken at 1,800' AGL
Temperatures Readings
Current 8°C / 46°F
Dewpoint 6°C / 43°F
Humidity 87%
Altimeter 29.79" Hg
Pressure 1009 hPa
Elevation 12
METAR ENSS 141850Z 29008KT 9999 SCT013 BKN018 08/06 Q1009 RMK WIND 500FT 27013KT
Observed Flight Rules
Aug-14 @ 18:50 UTC
(6 hours ago)
MVFR
Wind Visibility
290° at 8 knots 10,000+ meters
Clouds
  • Scattered at 1,300' AGL
  • Broken at 1,800' AGL
Temperature Dewpoint
8°C / 46°F 6°C / 43°F
Humidity Altimeter Pressure
87% 29.79" Hg 1009 hPa